createdAt,value
2022-09-11T00:01:23.270Z,14
2022-09-11T00:11:25.869Z,13.9
2022-09-11T00:21:28.228Z,13.8
2022-09-11T00:31:30.838Z,13.7
2022-09-11T00:51:35.286Z,13.6
2022-09-11T01:01:37.899Z,13.4
2022-09-11T01:11:40.393Z,13.5
2022-09-11T01:31:44.515Z,13.3
2022-09-11T01:41:46.443Z,13.3
2022-09-11T01:51:48.563Z,13.2
2022-09-11T02:01:50.314Z,13.2
2022-09-11T02:21:54.029Z,12.8
2022-09-11T02:31:56.536Z,12.8
2022-09-11T02:41:59.017Z,12.9
2022-09-11T02:52:01.647Z,12.8
2022-09-11T03:02:03.812Z,12.7
2022-09-11T03:12:05.911Z,12.6
2022-09-11T03:22:07.619Z,12.6
2022-09-11T03:42:11.418Z,13.1
2022-09-11T03:52:13.921Z,13.2
2022-09-11T04:02:15.657Z,13.1
2022-09-11T04:12:18.170Z,13.1
2022-09-11T04:22:20.783Z,13.2
2022-09-11T04:42:25.070Z,13.1
2022-09-11T04:52:27.493Z,13
2022-09-11T05:02:29.956Z,13
2022-09-11T05:12:32.131Z,12.9
2022-09-11T05:22:33.793Z,12.9
2022-09-11T05:32:35.863Z,12.8
2022-09-11T05:42:38.129Z,12.9
2022-09-11T05:52:39.767Z,12.9
2022-09-11T06:02:42.243Z,12.7
2022-09-11T06:12:43.907Z,12.8
2022-09-11T06:22:45.929Z,12.8
2022-09-11T06:42:49.828Z,12.8
2022-09-11T06:52:51.666Z,12.9
2022-09-11T07:02:53.565Z,12.8
2022-09-11T07:12:55.639Z,13
2022-09-11T07:22:57.973Z,13
2022-09-11T07:33:00.423Z,13.1
2022-09-11T07:43:02.536Z,13.2
2022-09-11T07:53:04.705Z,13.3
2022-09-11T08:03:06.769Z,13.5
2022-09-11T08:13:09.609Z,13.6
2022-09-11T08:23:10.544Z,13.8
2022-09-11T08:33:12.623Z,13.7
2022-09-11T08:43:14.939Z,13.7
2022-09-11T08:53:16.751Z,13.8
2022-09-11T09:03:18.597Z,13.8
2022-09-11T09:13:21.161Z,13.9
2022-09-11T09:23:23.627Z,13.9
2022-09-11T09:33:26.102Z,13.8
2022-09-11T09:43:27.861Z,14
2022-09-11T09:53:29.757Z,14
2022-09-11T10:03:31.671Z,14.1
2022-09-11T10:13:34.252Z,14.2
2022-09-11T10:23:36.018Z,14.4
2022-09-11T10:33:37.998Z,14.6
2022-09-11T10:53:41.757Z,15.1
2022-09-11T11:03:43.926Z,15.6
2022-09-11T11:13:45.960Z,15.5
2022-09-11T11:23:47.828Z,15.8
2022-09-11T11:33:49.770Z,15.9
2022-09-11T11:43:51.525Z,16.1
2022-09-11T11:53:53.979Z,16.1
2022-09-11T12:03:56.521Z,16
2022-09-11T12:13:58.512Z,16.5
2022-09-11T12:24:00.615Z,16.5
2022-09-11T12:34:02.571Z,16.6
2022-09-11T12:44:04.962Z,17.1
2022-09-11T12:54:07.540Z,17.4
2022-09-11T13:04:09.628Z,17.5
